createdAt,value
2023-09-30T00:00:15.410Z,97827.16
2023-09-30T00:05:11.238Z,97842.22
2023-09-30T00:10:07.229Z,97838.56
2023-09-30T00:15:00.549Z,97833.28
2023-09-30T00:19:53.877Z,97841.38
2023-09-30T00:24:47.201Z,97840.97
2023-09-30T00:29:42.574Z,97844.16
2023-09-30T00:34:36.576Z,97845.00
2023-09-30T00:39:31.476Z,97842.19
2023-09-30T00:44:24.932Z,97834.22
2023-09-30T00:49:20.223Z,97829.06
2023-09-30T00:54:14.298Z,97830.22
2023-09-30T00:59:07.952Z,97820.84
2023-09-30T01:04:01.944Z,97820.69
2023-09-30T01:08:57.334Z,97814.97
2023-09-30T01:13:50.699Z,97814.97
2023-09-30T01:18:44.834Z,97817.91
2023-09-30T01:23:39.890Z,97803.94
2023-09-30T01:28:33.572Z,97790.53
2023-09-30T01:33:26.976Z,97782.72
2023-09-30T01:38:21.083Z,97786.59
2023-09-30T01:43:16.397Z,97788.69
2023-09-30T01:48:12.065Z,97802.81
2023-09-30T01:53:06.149Z,97799.75
2023-09-30T01:57:59.461Z,97793.22
2023-09-30T02:02:54.363Z,97794.88
2023-09-30T02:07:47.754Z,97785.66
2023-09-30T02:12:41.156Z,97778.38
2023-09-30T02:17:34.637Z,97781.88
2023-09-30T02:22:33.192Z,97780.03
2023-09-30T02:27:26.591Z,97776.56
2023-09-30T02:32:19.924Z,97775.56
2023-09-30T02:37:13.266Z,97769.28
2023-09-30T02:42:08.045Z,97793.00
2023-09-30T02:47:01.374Z,97793.78
2023-09-30T02:51:54.729Z,97784.59
2023-09-30T02:56:48.283Z,97794.41
2023-09-30T03:01:43.345Z,97798.28
2023-09-30T03:06:39.720Z,97791.56
2023-09-30T03:11:33.349Z,97792.16
2023-09-30T03:16:27.212Z,97792.84
2023-09-30T03:21:21.975Z,97792.44
2023-09-30T03:26:15.435Z,97788.13
2023-09-30T03:31:09.468Z,97785.03
2023-09-30T03:36:04.784Z,97782.75
2023-09-30T03:40:59.584Z,97786.25
2023-09-30T03:45:54.762Z,97787.09
2023-09-30T03:50:48.087Z,97780.28
2023-09-30T03:55:41.884Z,97788.09
2023-09-30T04:00:37.187Z,97789.63
2023-09-30T04:05:33.202Z,97797.56
2023-09-30T04:10:26.679Z,97796.59
2023-09-30T04:15:20.806Z,97780.00
2023-09-30T04:20:24.047Z,97777.63
2023-09-30T04:25:18.247Z,97775.94
2023-09-30T04:30:12.804Z,97763.09
2023-09-30T04:35:07.260Z,97766.75
2023-09-30T04:40:02.023Z,97770.53
2023-09-30T04:45:02.588Z,97767.13
2023-09-30T04:49:59.502Z,97787.56
2023-09-30T04:54:52.928Z,97795.56
2023-09-30T04:59:52.335Z,97789.75
2023-09-30T05:04:46.033Z,97797.53
2023-09-30T05:09:39.436Z,97798.50
2023-09-30T05:14:34.275Z,97801.44
2023-09-30T05:19:29.400Z,97818.56
2023-09-30T05:24:22.766Z,97824.16
2023-09-30T05:29:19.061Z,97830.03
2023-09-30T05:34:14.939Z,97814.00
2023-09-30T05:39:13.098Z,97798.53
2023-09-30T05:44:08.893Z,97825.28
2023-09-30T05:49:11.949Z,97844.47
2023-09-30T05:54:06.252Z,97841.84
2023-09-30T05:59:03.369Z,97836.56
2023-09-30T06:03:57.181Z,97840.09
2023-09-30T06:08:51.144Z,97807.47
2023-09-30T06:13:48.333Z,97839.78
2023-09-30T06:18:43.149Z,97843.72
2023-09-30T06:23:36.847Z,97869.53
2023-09-30T06:28:32.660Z,97862.53
2023-09-30T06:33:26.386Z,97855.75
2023-09-30T06:38:21.860Z,97849.19
2023-09-30T06:43:16.748Z,97835.84
2023-09-30T06:48:13.715Z,97863.31
2023-09-30T06:53:07.492Z,97861.81
2023-09-30T06:58:02.636Z,97865.88
2023-09-30T07:02:56.102Z,97886.09
2023-09-30T07:07:49.556Z,97880.81
2023-09-30T07:12:43.199Z,97888.19
2023-09-30T07:17:38.652Z,97881.72
2023-09-30T07:27:28.968Z,97914.69
2023-09-30T07:32:24.446Z,97928.66
2023-09-30T07:37:20.405Z,97935.50
2023-09-30T07:42:14.241Z,97937.72
2023-09-30T07:47:08.111Z,97947.25
2023-09-30T07:52:01.555Z,97949.59
2023-09-30T07:56:57.016Z,97930.34
2023-09-30T08:01:51.117Z,97927.41
2023-09-30T08:06:44.575Z,97915.69
2023-09-30T08:11:38.260Z,97921.00
2023-09-30T08:16:33.083Z,97917.78
2023-09-30T08:21:26.461Z,97958.06
2023-09-30T08:26:19.795Z,97974.97
2023-09-30T08:31:13.131Z,97973.25
2023-09-30T08:36:09.722Z,97974.56
2023-09-30T08:41:04.362Z,97974.25
2023-09-30T08:45:58.969Z,97968.34
2023-09-30T08:50:55.551Z,97956.31
2023-09-30T08:55:55.091Z,97961.97
2023-09-30T09:00:52.415Z,97959.91
2023-09-30T09:05:45.876Z,97965.47
2023-09-30T09:10:57.387Z,97980.38
2023-09-30T09:15:50.862Z,97974.91
2023-09-30T09:20:44.424Z,97974.44
2023-09-30T09:25:41.326Z,97978.47
2023-09-30T09:30:40.071Z,97988.19
2023-09-30T09:35:36.296Z,97983.03
2023-09-30T09:40:32.001Z,97983.84
2023-09-30T09:45:28.267Z,97991.44
2023-09-30T09:50:24.914Z,97965.84
2023-09-30T09:55:19.827Z,97963.50
2023-09-30T10:00:17.479Z,97957.50
2023-09-30T10:05:13.074Z,97950.44
2023-09-30T10:10:15.210Z,97953.13
2023-09-30T10:15:42.660Z,97945.88
2023-09-30T10:20:37.809Z,97945.44
2023-09-30T10:25:40.362Z,97941.41
2023-09-30T10:30:33.833Z,97943.38
2023-09-30T10:35:47.512Z,97939.47
2023-09-30T10:40:42.340Z,97941.81
2023-09-30T10:45:48.462Z,97933.41
2023-09-30T10:50:56.449Z,97913.00
2023-09-30T10:55:58.462Z,97923.75
2023-09-30T11:00:56.440Z,97927.22
2023-09-30T11:06:11.099Z,97924.09
2023-09-30T11:11:06.273Z,97918.69
2023-09-30T11:16:03.704Z,97918.31
2023-09-30T11:21:11.694Z,97907.84
2023-09-30T11:26:07.453Z,97902.22
2023-09-30T11:31:03.471Z,97908.97
2023-09-30T11:36:03.897Z,97900.47
2023-09-30T11:41:07.591Z,97904.34
2023-09-30T11:46:09.917Z,97887.97
2023-09-30T11:51:04.653Z,97893.13
2023-09-30T11:55:59.738Z,97887.72
2023-09-30T12:00:58.668Z,97887.25
2023-09-30T12:05:52.217Z,97869.06
2023-09-30T12:10:45.500Z,97863.63
2023-09-30T12:15:38.911Z,97864.91
2023-09-30T12:20:34.301Z,97847.59
2023-09-30T12:25:27.656Z,97844.28
2023-09-30T12:30:21.318Z,97850.84
2023-09-30T12:35:14.659Z,97845.06
2023-09-30T12:40:12.621Z,97846.59
2023-09-30T12:45:07.208Z,97851.69
2023-09-30T12:50:00.524Z,97830.78
2023-09-30T12:54:54.255Z,97828.78
2023-09-30T12:59:50.507Z,97823.63
2023-09-30T13:04:45.806Z,97827.66
2023-09-30T13:09:39.325Z,97829.63
2023-09-30T13:14:32.834Z,97829.88
2023-09-30T13:19:27.657Z,97835.06
2023-09-30T13:24:21.290Z,97835.63
2023-09-30T13:29:17.315Z,97823.06
2023-09-30T13:34:11.072Z,97827.03
2023-09-30T13:39:06.881Z,97825.25
2023-09-30T13:44:00.305Z,97831.91
2023-09-30T13:48:54.178Z,97824.41
2023-09-30T13:53:47.659Z,97819.56
2023-09-30T13:58:43.484Z,97814.13
2023-09-30T14:03:36.817Z,97816.94
2023-09-30T14:08:31.693Z,97817.41
2023-09-30T14:13:25.110Z,97822.34
2023-09-30T14:18:19.801Z,97816.38
2023-09-30T14:23:13.112Z,97819.72
2023-09-30T14:28:07.113Z,97815.84
2023-09-30T14:33:00.579Z,97818.03
2023-09-30T14:37:56.118Z,97814.88
2023-09-30T14:42:50.152Z,97820.03
2023-09-30T14:47:43.667Z,97816.38
2023-09-30T14:52:37.008Z,97819.56
2023-09-30T14:57:31.812Z,97822.25
2023-09-30T15:02:26.252Z,97813.25
2023-09-30T15:07:19.946Z,97816.16
2023-09-30T15:12:13.235Z,97820.78
2023-09-30T15:17:07.970Z,97818.56
2023-09-30T15:22:01.340Z,97810.53
2023-09-30T15:26:55.710Z,97814.72
2023-09-30T15:31:49.192Z,97809.22
2023-09-30T15:36:44.035Z,97813.06
2023-09-30T15:41:37.376Z,97815.72
2023-09-30T15:46:31.187Z,97814.81
2023-09-30T15:51:24.596Z,97816.00
2023-09-30T15:56:19.256Z,97821.44
2023-09-30T16:01:14.960Z,97827.03
2023-09-30T16:06:08.359Z,97836.78
2023-09-30T16:11:01.793Z,97839.09
2023-09-30T16:15:56.799Z,97837.22
2023-09-30T16:20:51.550Z,97842.59
2023-09-30T16:25:44.867Z,97856.28
2023-09-30T16:30:38.369Z,97848.03
2023-09-30T16:35:33.240Z,97846.28
2023-09-30T16:40:26.724Z,97847.22
2023-09-30T16:45:20.064Z,97835.31
2023-09-30T16:50:13.611Z,97828.50
2023-09-30T16:55:13.651Z,97835.53
2023-09-30T17:00:09.177Z,97844.16
2023-09-30T17:05:05.075Z,97849.59
2023-09-30T17:09:58.575Z,97851.16
2023-09-30T17:14:55.728Z,97849.66
2023-09-30T17:19:52.843Z,97851.50
2023-09-30T17:24:47.180Z,97843.81
2023-09-30T17:29:40.689Z,97849.13
2023-09-30T17:34:38.309Z,97839.63
2023-09-30T17:39:32.253Z,97840.22
2023-09-30T17:44:26.000Z,97846.63
2023-09-30T17:49:19.564Z,97846.50
2023-09-30T17:54:14.779Z,97838.72
2023-09-30T17:59:12.869Z,97832.69
2023-09-30T18:04:20.665Z,97834.38
2023-09-30T18:09:15.412Z,97841.91
2023-09-30T18:14:12.133Z,97833.94
2023-09-30T18:19:06.370Z,97839.41
2023-09-30T18:23:59.986Z,97837.19
2023-09-30T18:28:56.251Z,97834.66
2023-09-30T18:33:49.800Z,97843.03
2023-09-30T18:38:43.403Z,97847.50
2023-09-30T18:43:36.821Z,97855.75
2023-09-30T18:48:31.530Z,97853.22
2023-09-30T18:53:24.858Z,97853.38
2023-09-30T18:58:19.240Z,97860.34
2023-09-30T19:03:13.229Z,97859.16
2023-09-30T19:08:10.053Z,97865.19
2023-09-30T19:13:03.702Z,97861.34
2023-09-30T19:17:57.873Z,97862.38
2023-09-30T19:22:52.236Z,97864.81
2023-09-30T19:27:47.314Z,97860.94
2023-09-30T19:32:40.823Z,97861.63
2023-09-30T19:37:34.841Z,97865.66
2023-09-30T19:42:28.594Z,97868.78
2023-09-30T19:47:24.804Z,97863.91
2023-09-30T19:52:18.240Z,97871.00
2023-09-30T19:57:11.863Z,97871.00
2023-09-30T20:02:06.430Z,97880.22
2023-09-30T20:07:01.875Z,97871.31
2023-09-30T20:11:57.686Z,97883.16
2023-09-30T20:16:51.215Z,97887.47
2023-09-30T20:21:44.701Z,97885.75
2023-09-30T20:26:41.455Z,97889.41
2023-09-30T20:31:36.125Z,97899.03
2023-09-30T20:36:29.528Z,97892.31
2023-09-30T20:41:22.906Z,97891.63
2023-09-30T20:46:18.088Z,97892.22
2023-09-30T20:51:12.214Z,97900.16
2023-09-30T20:56:11.545Z,97890.13
2023-09-30T21:01:08.197Z,97901.97
2023-09-30T21:06:07.644Z,97898.03
2023-09-30T21:11:01.144Z,97898.94
2023-09-30T21:15:56.269Z,97903.16
2023-09-30T21:20:49.728Z,97909.06
2023-09-30T21:25:47.224Z,97915.84
2023-09-30T21:30:40.933Z,97925.75
2023-09-30T21:35:35.486Z,97935.53
2023-09-30T21:40:28.994Z,97919.56
2023-09-30T21:45:23.966Z,97917.25
2023-09-30T21:50:17.454Z,97922.06
2023-09-30T21:55:12.597Z,97921.66
2023-09-30T22:00:12.440Z,97925.00
2023-09-30T22:05:11.875Z,97919.00
2023-09-30T22:10:06.800Z,97928.16
2023-09-30T22:15:02.419Z,97924.94
2023-09-30T22:19:55.722Z,97942.38
2023-09-30T22:24:50.775Z,97930.16
2023-09-30T22:29:44.770Z,97934.16
2023-09-30T22:34:41.037Z,97943.41
2023-09-30T22:39:34.394Z,97945.19
2023-09-30T22:44:29.128Z,97948.69
2023-09-30T22:49:22.595Z,97954.81
2023-09-30T22:54:16.906Z,97959.00
2023-09-30T22:59:11.562Z,97954.44
2023-09-30T23:04:07.547Z,97951.16
2023-09-30T23:09:01.262Z,97938.94
2023-09-30T23:13:54.733Z,97940.00
2023-09-30T23:18:48.585Z,97945.44
2023-09-30T23:23:43.393Z,97950.03
2023-09-30T23:28:37.599Z,97943.53
2023-09-30T23:33:31.963Z,97958.28
2023-09-30T23:38:25.296Z,97960.22
2023-09-30T23:43:20.303Z,97960.72
2023-09-30T23:48:13.723Z,97960.34
2023-09-30T23:53:07.806Z,97954.47
2023-09-30T23:58:01.309Z,97957.50
